createdAt,value
2022-12-15T00:03:50.159Z,-4.38
2022-12-15T00:08:10.626Z,-4.44
2022-12-15T00:12:31.019Z,-4.42
2022-12-15T00:16:51.609Z,-4.31
2022-12-15T00:21:16.396Z,-4.30
2022-12-15T00:25:37.105Z,-4.35
2022-12-15T00:29:57.428Z,-4.28
2022-12-15T00:34:18.080Z,-4.33
2022-12-15T00:38:38.136Z,-4.38
2022-12-15T00:42:40.191Z,-4.29
2022-12-15T00:46:57.119Z,-4.30
2022-12-15T00:50:59.624Z,-4.28
2022-12-15T00:55:20.319Z,-4.26
2022-12-15T00:59:41.153Z,-4.40
2022-12-15T01:04:01.257Z,-4.35
2022-12-15T01:08:21.805Z,-4.30
2022-12-15T01:12:42.021Z,-4.31
2022-12-15T01:17:02.738Z,-4.33
2022-12-15T01:21:08.293Z,-4.34
2022-12-15T01:25:11.609Z,-4.32
2022-12-15T01:29:13.439Z,-4.34
2022-12-15T01:33:16.894Z,-4.25
2022-12-15T01:37:18.619Z,-4.23
2022-12-15T01:41:20.832Z,-4.29
2022-12-15T01:45:28.464Z,-4.26
2022-12-15T01:49:32.394Z,-4.34
2022-12-15T01:53:40.801Z,-4.17
2022-12-15T01:57:43.151Z,-4.20
2022-12-15T02:01:49.585Z,-4.17
2022-12-15T02:05:53.011Z,-4.15
2022-12-15T02:09:57.429Z,-4.10
2022-12-15T02:14:07.789Z,-4.17
2022-12-15T02:18:20.000Z,-4.13
2022-12-15T02:22:46.209Z,-4.13
2022-12-15T02:27:09.867Z,-4.22
2022-12-15T02:31:38.876Z,-4.18
2022-12-15T02:35:57.835Z,-4.14
2022-12-15T02:40:00.433Z,-4.09
2022-12-15T02:44:14.337Z,-4.13
2022-12-15T02:48:33.333Z,-4.16
2022-12-15T02:53:12.822Z,-4.12
2022-12-15T02:57:32.902Z,-4.10
2022-12-15T03:01:36.863Z,-4.04
2022-12-15T03:05:38.921Z,-4.04
2022-12-15T03:09:40.720Z,-4.05
2022-12-15T03:13:42.761Z,-4.10
2022-12-15T03:17:44.870Z,-4.06
2022-12-15T03:21:47.023Z,-4.08
2022-12-15T03:25:49.791Z,-4.03
2022-12-15T03:29:51.958Z,-3.98
2022-12-15T03:33:53.898Z,-3.94
2022-12-15T03:37:55.865Z,-3.97
2022-12-15T03:41:57.558Z,-4.01
2022-12-15T03:45:59.533Z,-4.15
2022-12-15T03:50:01.235Z,-3.99
2022-12-15T03:54:03.425Z,-4.03
2022-12-15T03:58:05.146Z,-4.02
2022-12-15T04:02:09.760Z,-3.97
2022-12-15T04:06:11.613Z,-3.92
2022-12-15T04:10:13.834Z,-3.95
2022-12-15T04:14:15.470Z,-3.91
2022-12-15T04:18:17.648Z,-3.86
2022-12-15T04:22:19.494Z,-3.88
2022-12-15T04:26:40.187Z,-3.86
2022-12-15T04:31:06.518Z,-3.92
2022-12-15T04:35:27.878Z,-3.88
2022-12-15T04:39:48.889Z,-3.97
2022-12-15T04:44:09.497Z,-3.92
2022-12-15T04:48:30.038Z,-3.92
2022-12-15T04:52:50.729Z,-3.88
2022-12-15T04:57:11.198Z,-3.93
2022-12-15T05:01:31.848Z,-3.98
2022-12-15T05:05:51.993Z,-4.01
2022-12-15T05:10:15.095Z,-4.08
2022-12-15T05:14:35.863Z,-4.03
2022-12-15T05:18:56.803Z,-3.97
2022-12-15T05:23:17.547Z,-3.97
2022-12-15T05:27:37.961Z,-4.01
2022-12-15T05:31:52.018Z,-4.11
2022-12-15T05:35:57.580Z,-4.03
2022-12-15T05:39:59.276Z,-4.04
2022-12-15T05:44:01.682Z,-3.99
2022-12-15T05:48:03.818Z,-3.99
2022-12-15T05:52:06.390Z,-4.01
2022-12-15T05:56:11.759Z,-3.95
2022-12-15T06:00:13.980Z,-3.94
2022-12-15T06:04:15.956Z,-3.97
2022-12-15T06:08:18.094Z,-3.98
2022-12-15T06:12:19.747Z,-3.93
2022-12-15T06:16:23.777Z,-3.89
2022-12-15T06:20:25.513Z,-3.91
2022-12-15T06:24:27.522Z,-3.87
2022-12-15T06:28:29.413Z,-3.78
2022-12-15T06:32:34.694Z,-3.82
2022-12-15T06:36:36.684Z,-3.76
2022-12-15T06:40:39.651Z,-3.83
2022-12-15T06:44:41.341Z,-3.70
2022-12-15T06:48:45.783Z,-3.75
2022-12-15T06:52:47.459Z,-3.80
2022-12-15T06:56:49.761Z,-3.83
2022-12-15T07:00:51.732Z,-3.71
2022-12-15T07:04:53.758Z,-3.85
2022-12-15T07:08:56.754Z,-3.79
2022-12-15T07:12:58.605Z,-3.77
2022-12-15T07:17:00.658Z,-3.87
2022-12-15T07:21:06.055Z,-3.79
2022-12-15T07:25:08.765Z,-3.82
2022-12-15T07:29:11.940Z,-3.85
2022-12-15T07:33:13.864Z,-3.84
2022-12-15T07:37:16.332Z,-3.68
2022-12-15T07:41:19.335Z,-3.75
2022-12-15T07:45:21.902Z,-3.61
2022-12-15T07:49:23.788Z,-3.68
2022-12-15T07:53:27.877Z,-3.73
2022-12-15T07:57:30.062Z,-3.72
2022-12-15T08:01:32.564Z,-3.59
2022-12-15T08:05:34.943Z,-3.57
2022-12-15T08:09:37.568Z,-3.44
2022-12-15T08:18:02.991Z,-3.45
2022-12-15T08:22:04.718Z,-3.40
2022-12-15T08:26:15.175Z,-3.36
2022-12-15T08:30:18.424Z,-3.28
2022-12-15T08:34:20.955Z,-3.20
2022-12-15T08:38:22.581Z,-3.23
2022-12-15T08:42:24.610Z,-3.17
2022-12-15T08:46:33.468Z,-3.34
2022-12-15T08:50:35.508Z,-3.17
2022-12-15T08:54:37.303Z,-3.12
2022-12-15T08:58:39.746Z,-3.24
2022-12-15T09:02:41.479Z,-3.16
2022-12-15T09:06:43.883Z,-3.11
2022-12-15T09:10:52.344Z,-3.14
2022-12-15T09:14:54.901Z,-3.03
2022-12-15T09:18:59.250Z,-2.91
2022-12-15T09:23:00.915Z,-3.05
2022-12-15T09:27:03.615Z,-3.18
2022-12-15T09:31:08.158Z,-3.18
2022-12-15T09:35:10.220Z,-3.25
2022-12-15T09:39:12.410Z,-3.13
2022-12-15T09:43:34.457Z,-3.02
2022-12-15T09:47:44.833Z,-3.09
2022-12-15T09:51:55.976Z,-2.94
2022-12-15T09:56:15.477Z,-2.90
2022-12-15T10:00:29.807Z,-2.75
2022-12-15T10:04:47.424Z,-3.04
2022-12-15T10:08:54.780Z,-2.97
2022-12-15T10:13:02.879Z,-2.89
2022-12-15T10:17:21.549Z,-2.88
2022-12-15T10:21:27.982Z,-2.74
2022-12-15T10:25:33.104Z,-3.05
2022-12-15T10:29:44.032Z,-3.23
2022-12-15T10:33:54.573Z,-3.26
2022-12-15T10:38:00.219Z,-3.22
2022-12-15T10:42:17.690Z,-3.12
2022-12-15T10:46:28.462Z,-3.15
2022-12-15T10:50:30.781Z,-3.02
2022-12-15T10:54:43.681Z,-3.11
2022-12-15T10:58:50.071Z,-2.71
2022-12-15T11:02:52.135Z,-2.90
2022-12-15T11:07:03.805Z,-2.80
2022-12-15T11:11:45.165Z,-2.66
2022-12-15T11:15:56.353Z,-2.97
2022-12-15T11:20:03.448Z,-3.07
2022-12-15T11:24:35.357Z,-3.28
2022-12-15T11:28:50.963Z,-3.44
2022-12-15T11:32:57.844Z,-3.44
2022-12-15T11:37:20.810Z,-3.19
2022-12-15T11:42:01.560Z,-3.34
2022-12-15T11:46:21.858Z,-3.59
2022-12-15T11:50:31.301Z,-3.62
2022-12-15T11:54:52.708Z,-3.51
2022-12-15T11:59:36.280Z,-3.57
2022-12-15T12:03:53.353Z,-3.66
2022-12-15T12:08:10.277Z,-3.66
2022-12-15T12:12:30.497Z,-3.76
2022-12-15T12:16:56.267Z,-3.88
2022-12-15T12:21:08.969Z,-3.70
2022-12-15T12:25:15.554Z,-3.93
2022-12-15T12:29:33.243Z,-3.91
2022-12-15T12:33:48.617Z,-3.81
2022-12-15T12:38:03.951Z,-3.75
2022-12-15T12:42:16.852Z,-3.92
2022-12-15T12:46:28.842Z,-3.75
2022-12-15T12:50:33.443Z,-3.81
2022-12-15T12:54:35.270Z,-3.88
2022-12-15T12:58:37.080Z,-3.97
2022-12-15T13:02:59.273Z,-3.70
2022-12-15T13:11:53.806Z,-3.72
2022-12-15T13:16:05.719Z,-3.83
2022-12-15T13:20:22.608Z,-3.75
2022-12-15T13:24:45.157Z,-3.80
2022-12-15T13:28:50.786Z,-3.80
2022-12-15T13:33:19.183Z,-3.87
2022-12-15T13:37:48.917Z,-3.74
2022-12-15T13:42:31.747Z,-3.79
2022-12-15T13:46:23.247Z,-3.66
2022-12-15T13:50:39.433Z,-3.89
2022-12-15T13:54:46.444Z,-4.06
2022-12-15T13:59:00.961Z,-3.89
2022-12-15T14:03:10.291Z,-3.95
2022-12-15T14:07:12.369Z,-3.85
2022-12-15T14:11:51.429Z,-3.85
2022-12-15T14:15:50.909Z,-3.97
2022-12-15T14:19:52.991Z,-4.01
2022-12-15T14:24:37.079Z,-4.15
2022-12-15T14:28:31.877Z,-4.08
2022-12-15T14:32:33.998Z,-4.20
2022-12-15T14:36:36.599Z,-4.19
2022-12-15T14:40:40.054Z,-4.31
2022-12-15T14:44:49.721Z,-4.28
2022-12-15T14:49:03.271Z,-4.40
2022-12-15T14:53:16.757Z,-4.43
2022-12-15T14:57:25.285Z,-4.44
2022-12-15T15:01:33.321Z,-4.52
2022-12-15T15:03:12.903Z,-3.76
2022-12-15T15:05:40.479Z,-4.54
2022-12-15T15:09:45.183Z,-4.55
2022-12-15T15:13:47.513Z,-4.72
2022-12-15T15:17:53.176Z,-4.67
2022-12-15T15:21:55.342Z,-4.63
2022-12-15T15:26:08.350Z,-4.69
2022-12-15T15:30:22.148Z,-4.75
2022-12-15T15:34:23.798Z,-4.70
2022-12-15T15:38:33.818Z,-4.76
2022-12-15T15:42:35.859Z,-4.74
2022-12-15T15:46:44.879Z,-4.73
2022-12-15T15:50:47.289Z,-4.63
2022-12-15T15:54:49.549Z,-4.72
2022-12-15T15:58:51.496Z,-4.84
2022-12-15T16:02:53.446Z,-4.94
2022-12-15T16:06:55.908Z,-5.01
2022-12-15T16:10:58.067Z,-4.98
2022-12-15T16:14:59.744Z,-4.95
2022-12-15T16:19:01.762Z,-5.11
2022-12-15T16:23:18.177Z,-5.02
2022-12-15T16:27:20.141Z,-5.00
2022-12-15T16:31:32.778Z,-4.94
2022-12-15T16:35:38.406Z,-4.89
2022-12-15T16:39:40.325Z,-4.84
2022-12-15T16:43:48.166Z,-4.77
2022-12-15T16:47:50.358Z,-4.77
2022-12-15T16:51:54.208Z,-4.83
2022-12-15T16:56:02.916Z,-4.80
2022-12-15T17:00:15.230Z,-4.71
2022-12-15T17:04:17.407Z,-4.60
2022-12-15T17:08:24.718Z,-4.71
2022-12-15T17:12:26.720Z,-4.54
2022-12-15T17:16:29.894Z,-4.58
2022-12-15T17:20:32.596Z,-4.53
2022-12-15T17:24:34.559Z,-4.58
2022-12-15T17:28:40.706Z,-4.52
2022-12-15T17:32:43.475Z,-4.35
2022-12-15T17:36:45.352Z,-4.17
2022-12-15T17:40:48.651Z,-4.10
2022-12-15T17:44:51.780Z,-4.03
2022-12-15T17:48:53.672Z,-4.13
2022-12-15T17:52:55.905Z,-4.12
2022-12-15T17:56:58.622Z,-3.98
2022-12-15T18:01:00.629Z,-3.92
2022-12-15T18:05:02.589Z,-4.07
2022-12-15T18:09:05.918Z,-4.03
2022-12-15T18:13:33.362Z,-3.99
2022-12-15T18:17:37.293Z,-3.92
2022-12-15T18:21:39.357Z,-3.97
2022-12-15T18:25:42.288Z,-3.98
2022-12-15T18:29:44.118Z,-4.09
2022-12-15T18:33:46.570Z,-3.94
2022-12-15T18:37:50.518Z,-4.01
2022-12-15T18:41:54.854Z,-3.93
2022-12-15T18:45:56.745Z,-3.87
2022-12-15T18:49:58.664Z,-3.90
2022-12-15T18:54:00.944Z,-3.93
2022-12-15T18:58:02.663Z,-4.02
2022-12-15T19:02:04.754Z,-3.92
2022-12-15T19:06:34.922Z,-3.95
2022-12-15T19:10:45.725Z,-3.97
2022-12-15T19:14:49.961Z,-3.98
2022-12-15T19:19:16.960Z,-3.87
2022-12-15T19:23:19.099Z,-3.95
2022-12-15T19:27:26.052Z,-3.86
2022-12-15T19:31:27.897Z,-3.75
2022-12-15T19:35:29.987Z,-3.84
2022-12-15T19:39:35.006Z,-3.83
2022-12-15T19:43:37.407Z,-3.86
2022-12-15T19:47:39.416Z,-3.90
2022-12-15T19:51:41.749Z,-3.95
2022-12-15T19:55:44.444Z,-3.84
2022-12-15T19:59:46.183Z,-3.75
2022-12-15T20:03:51.129Z,-3.71
2022-12-15T20:07:53.755Z,-3.69
2022-12-15T20:11:55.774Z,-3.65
2022-12-15T20:15:58.152Z,-3.65
2022-12-15T20:19:59.820Z,-3.60
2022-12-15T20:24:07.671Z,-3.63
2022-12-15T20:28:24.896Z,-3.73
2022-12-15T20:32:26.850Z,-3.71
2022-12-15T20:36:30.627Z,-3.73
2022-12-15T20:40:32.372Z,-3.79
2022-12-15T20:44:34.507Z,-3.68
2022-12-15T20:48:37.095Z,-3.70
2022-12-15T20:52:39.525Z,-3.77
2022-12-15T20:56:42.624Z,-3.77
2022-12-15T21:00:46.150Z,-3.75
2022-12-15T21:04:48.921Z,-3.81
2022-12-15T21:08:50.804Z,-3.68
2022-12-15T21:12:53.014Z,-3.66
2022-12-15T21:16:56.356Z,-3.67
2022-12-15T21:21:01.452Z,-3.74
2022-12-15T21:25:04.350Z,-3.81
2022-12-15T21:29:18.119Z,-3.80
2022-12-15T21:33:20.619Z,-3.86
2022-12-15T21:37:29.400Z,-3.88
2022-12-15T21:41:31.683Z,-3.88
2022-12-15T21:45:33.388Z,-3.93
2022-12-15T21:49:35.438Z,-3.92
2022-12-15T21:53:37.389Z,-3.90
2022-12-15T21:57:39.129Z,-3.91
2022-12-15T22:01:41.281Z,-3.97
2022-12-15T22:05:43.487Z,-3.95
2022-12-15T22:09:45.454Z,-4.02
2022-12-15T22:13:48.394Z,-4.09
2022-12-15T22:17:50.744Z,-4.13
2022-12-15T22:21:52.928Z,-4.18
2022-12-15T22:25:55.933Z,-4.22
2022-12-15T22:29:57.896Z,-4.20
2022-12-15T22:33:59.772Z,-4.30
2022-12-15T22:38:01.910Z,-4.32
2022-12-15T22:42:04.690Z,-4.35
2022-12-15T22:46:12.775Z,-4.35
2022-12-15T22:50:18.879Z,-4.31
2022-12-15T22:54:23.782Z,-4.28
2022-12-15T22:58:32.568Z,-4.28
2022-12-15T23:02:39.067Z,-4.29
2022-12-15T23:06:41.085Z,-4.38
2022-12-15T23:11:01.811Z,-4.43
2022-12-15T23:15:22.756Z,-4.39
2022-12-15T23:19:24.515Z,-4.35
2022-12-15T23:23:27.976Z,-4.38
2022-12-15T23:27:29.706Z,-4.38
2022-12-15T23:31:31.953Z,-4.39
2022-12-15T23:35:33.933Z,-4.38
2022-12-15T23:39:35.878Z,-4.37
2022-12-15T23:43:37.783Z,-4.47
2022-12-15T23:47:39.699Z,-4.45
2022-12-15T23:51:41.460Z,-4.44
2022-12-15T23:55:43.319Z,-4.49
2022-12-15T23:59:45.624Z,-4.47
